Aviation Digital Data Service (ADDS)

Output produced by METARs form (1953 UTC 28 April 2017)
found at http://aviationweather.gov/adds/metars/
 
KOAJ 281720Z 2818/2918 21009KT P6SM SCT035 
     FM290700 20006KT P6SM SCT004 BKN007 
     FM291300 21006KT P6SM SCT010 AMD LTD TO CLD VIS AND WIND